createdAt,value
2018-06-23T00:04:06.435Z,1.67
2018-06-23T00:09:09.608Z,1.43
2018-06-23T00:14:12.784Z,3.33
2018-06-23T00:19:16.120Z,1.67
2018-06-23T00:24:19.273Z,3.17
2018-06-23T00:29:22.427Z,1.77
2018-06-23T00:34:25.574Z,2.67
2018-06-23T00:39:28.684Z,2.47
2018-06-23T00:44:31.822Z,2.60
2018-06-23T00:49:34.952Z,2.80
2018-06-23T00:54:38.239Z,3.00
2018-06-23T00:59:43.319Z,7.00
2018-06-23T01:04:46.448Z,3.87
2018-06-23T01:09:49.577Z,3.87
2018-06-23T01:14:52.721Z,4.07
2018-06-23T01:19:55.845Z,3.20
2018-06-23T01:24:58.972Z,5.97
2018-06-23T01:30:02.176Z,5.53
2018-06-23T01:35:05.339Z,2.10
2018-06-23T01:40:08.571Z,3.10
2018-06-23T01:45:11.757Z,2.50
2018-06-23T01:50:14.837Z,3.47
2018-06-23T01:55:18.083Z,4.87
2018-06-23T02:00:21.199Z,6.23
2018-06-23T02:05:24.335Z,2.70
2018-06-23T02:10:27.447Z,2.00
2018-06-23T02:15:35.944Z,2.70
2018-06-23T02:20:44.454Z,2.10
2018-06-23T02:25:53.003Z,5.57
2018-06-23T02:31:01.571Z,2.50
2018-06-23T02:36:04.689Z,2.73
2018-06-23T02:41:07.943Z,3.93
2018-06-23T02:46:11.068Z,7.13
2018-06-23T02:51:14.311Z,4.60
2018-06-23T02:56:17.457Z,5.80
2018-06-23T03:01:20.574Z,3.63
2018-06-23T03:06:23.707Z,5.60
2018-06-23T03:11:26.845Z,3.70
2018-06-23T03:16:29.975Z,7.27
2018-06-23T03:21:33.104Z,6.73
2018-06-23T03:26:36.236Z,5.10
2018-06-23T03:31:39.359Z,5.73
2018-06-23T03:36:42.497Z,5.43
2018-06-23T03:41:45.630Z,4.70
2018-06-23T03:46:48.750Z,4.60
2018-06-23T03:51:52.033Z,4.60
2018-06-23T03:56:55.155Z,6.00
2018-06-23T04:01:58.264Z,6.60
2018-06-23T04:07:01.395Z,10.13
2018-06-23T04:12:04.525Z,7.33
2018-06-23T04:17:07.648Z,8.80
2018-06-23T04:22:10.784Z,6.20
2018-06-23T04:27:13.917Z,6.80
2018-06-23T04:32:17.449Z,8.27
2018-06-23T04:37:20.569Z,6.83
2018-06-23T04:42:23.708Z,9.10
2018-06-23T04:47:26.840Z,9.00
2018-06-23T04:52:29.948Z,9.07
2018-06-23T04:57:33.049Z,7.87
2018-06-23T05:02:36.176Z,10.20
2018-06-23T05:07:39.314Z,8.10
2018-06-23T05:12:42.468Z,6.47
2018-06-23T05:17:45.644Z,9.70
2018-06-23T05:22:48.773Z,7.97
2018-06-23T05:27:51.905Z,12.13
2018-06-23T05:32:55.006Z,6.50
2018-06-23T05:37:58.167Z,10.60
2018-06-23T05:43:02.309Z,8.23
2018-06-23T05:48:05.482Z,6.03
2018-06-23T05:53:08.586Z,6.40
2018-06-23T05:58:11.672Z,8.23
2018-06-23T06:03:14.844Z,6.20
2018-06-23T06:08:17.923Z,5.43
2018-06-23T06:13:21.057Z,6.07
2018-06-23T06:18:24.169Z,7.03
2018-06-23T06:23:27.441Z,8.03
2018-06-23T06:28:30.583Z,7.80
2018-06-23T06:33:33.679Z,5.63
2018-06-23T06:38:36.853Z,6.80
2018-06-23T06:43:40.002Z,6.53
2018-06-23T06:48:43.104Z,5.90
2018-06-23T06:53:46.194Z,5.70
2018-06-23T06:58:49.308Z,6.40
2018-06-23T07:03:52.395Z,5.67
2018-06-23T07:08:55.549Z,5.27
2018-06-23T07:13:58.615Z,3.57
2018-06-23T07:19:01.728Z,3.93
2018-06-23T07:24:05.700Z,4.23
2018-06-23T07:29:08.933Z,4.97
2018-06-23T07:34:12.202Z,6.37
2018-06-23T07:39:15.696Z,5.20
2018-06-23T07:44:18.812Z,4.73
2018-06-23T07:49:21.921Z,4.07
2018-06-23T07:54:25.048Z,4.60
2018-06-23T07:59:28.235Z,5.03
2018-06-23T08:04:31.404Z,3.20
2018-06-23T08:09:34.499Z,4.80
2018-06-23T08:14:37.615Z,3.67
2018-06-23T08:19:40.711Z,3.03
2018-06-23T08:24:43.809Z,3.27
2018-06-23T08:29:47.704Z,7.30
2018-06-23T08:34:50.866Z,3.37
2018-06-23T08:39:53.975Z,4.70
2018-06-23T08:44:57.149Z,4.63
2018-06-23T08:50:00.283Z,4.17
2018-06-23T08:55:03.393Z,4.67
2018-06-23T09:00:06.539Z,5.63
2018-06-23T09:05:09.616Z,2.50
2018-06-23T09:10:12.744Z,4.47
2018-06-23T09:15:15.899Z,7.43
2018-06-23T09:20:19.022Z,5.47
2018-06-23T09:25:22.138Z,4.37
2018-06-23T09:30:25.263Z,3.00
2018-06-23T09:35:28.395Z,4.77
2018-06-23T09:40:31.519Z,2.93
2018-06-23T09:45:34.680Z,5.70
2018-06-23T09:50:37.859Z,2.93
2018-06-23T09:55:40.998Z,1.57
2018-06-23T10:00:44.135Z,2.50
2018-06-23T10:05:47.282Z,2.33
2018-06-23T10:10:50.463Z,2.90
2018-06-23T10:15:53.597Z,3.17
2018-06-23T10:20:56.742Z,3.80
2018-06-23T10:25:59.900Z,4.17
2018-06-23T10:31:03.098Z,4.23
2018-06-23T10:36:06.471Z,4.83
2018-06-23T10:41:09.624Z,3.70
2018-06-23T10:46:12.734Z,3.70
2018-06-23T10:51:16.045Z,4.13
2018-06-23T10:56:19.184Z,5.23
2018-06-23T11:01:22.326Z,3.17
2018-06-23T11:06:25.485Z,6.33
2018-06-23T11:11:28.620Z,6.20
2018-06-23T11:16:31.779Z,5.67
2018-06-23T11:21:34.963Z,3.57
2018-06-23T11:26:38.081Z,2.30
2018-06-23T11:31:41.248Z,4.60
2018-06-23T11:36:45.368Z,4.10
2018-06-23T11:41:48.484Z,2.80
2018-06-23T11:46:51.660Z,3.00
2018-06-23T11:51:54.868Z,3.93
2018-06-23T11:56:57.992Z,3.63
2018-06-23T12:02:01.123Z,5.53
2018-06-23T12:07:04.304Z,3.13
2018-06-23T12:12:07.453Z,2.60
2018-06-23T12:17:10.581Z,4.87
2018-06-23T12:22:13.720Z,2.87
2018-06-23T12:27:16.890Z,5.47
2018-06-23T12:32:20.048Z,11.47
2018-06-23T12:37:23.263Z,2.97
2018-06-23T12:42:26.497Z,4.10
2018-06-23T12:47:29.635Z,3.23
2018-06-23T12:52:32.787Z,5.10
2018-06-23T12:57:36.027Z,4.10
2018-06-23T13:02:39.224Z,4.03
2018-06-23T13:07:42.479Z,4.57
2018-06-23T13:12:45.734Z,4.60
2018-06-23T13:17:48.943Z,5.20
2018-06-23T13:22:52.211Z,5.57
2018-06-23T13:27:55.480Z,5.27
2018-06-23T13:32:58.731Z,5.17
2018-06-23T13:38:01.979Z,6.17
2018-06-23T13:43:05.275Z,5.10
2018-06-23T13:48:08.475Z,5.60
2018-06-23T13:53:11.724Z,4.63
2018-06-23T13:58:15.003Z,4.97
2018-06-23T14:03:18.213Z,5.77
2018-06-23T14:08:21.531Z,6.90
2018-06-23T14:13:24.803Z,4.10
2018-06-23T14:18:28.047Z,4.83
2018-06-23T14:23:31.338Z,4.93
2018-06-23T14:28:34.662Z,9.60
2018-06-23T14:33:37.955Z,8.70
2018-06-23T14:38:41.364Z,5.97
2018-06-23T14:43:44.756Z,6.20
2018-06-23T14:48:48.084Z,6.03
2018-06-23T14:53:51.452Z,7.27
2018-06-23T14:58:54.723Z,5.00
2018-06-23T15:03:58.198Z,4.37
2018-06-23T15:09:06.915Z,4.90
2018-06-23T15:14:10.239Z,4.43
2018-06-23T15:19:13.494Z,4.93
2018-06-23T15:24:16.770Z,5.20
2018-06-23T15:29:20.060Z,4.73
2018-06-23T15:34:23.336Z,5.27
2018-06-23T15:39:26.656Z,3.33
2018-06-23T15:44:29.976Z,3.73
2018-06-23T15:49:33.272Z,3.70
2018-06-23T15:54:36.527Z,4.73
2018-06-23T15:59:39.805Z,5.77
2018-06-23T16:04:43.135Z,5.10
2018-06-23T16:09:46.440Z,6.17
2018-06-23T16:14:49.810Z,5.20
2018-06-23T16:19:53.366Z,8.43
2018-06-23T16:24:57.632Z,3.50
2018-06-23T16:30:01.008Z,3.07
2018-06-23T16:35:05.583Z,3.87
2018-06-23T16:45:24.027Z,4.43
2018-06-23T16:50:27.483Z,2.90
2018-06-23T16:55:31.262Z,3.37
2018-06-23T17:00:34.596Z,2.57
2018-06-23T17:05:37.875Z,2.33
2018-06-23T17:10:41.855Z,3.33
2018-06-23T17:15:45.229Z,2.93
2018-06-23T17:26:09.178Z,2.70
2018-06-23T17:31:12.472Z,1.90
2018-06-23T17:36:15.672Z,2.60
2018-06-23T17:41:18.955Z,2.13
2018-06-23T17:46:22.260Z,4.87
2018-06-23T17:51:25.534Z,5.33
2018-06-23T17:56:28.817Z,6.00
2018-06-23T18:01:32.152Z,4.47
2018-06-23T18:06:35.434Z,2.40
2018-06-23T18:11:38.814Z,2.87
2018-06-23T18:16:42.151Z,3.60
2018-06-23T18:21:45.408Z,2.30
2018-06-23T18:26:48.656Z,2.30
2018-06-23T18:31:52.248Z,2.13
2018-06-23T18:36:55.539Z,3.60
2018-06-23T18:41:58.807Z,3.20
2018-06-23T18:47:02.041Z,2.80
2018-06-23T18:52:05.216Z,2.63
2018-06-23T18:57:08.444Z,1.80
2018-06-23T19:02:11.744Z,3.90
2018-06-23T19:07:14.995Z,3.20
2018-06-23T19:12:18.243Z,6.00
2018-06-23T19:17:21.484Z,1.93
2018-06-23T19:22:24.657Z,3.87
2018-06-23T19:27:27.856Z,2.10
2018-06-23T19:32:31.030Z,2.60
2018-06-23T19:37:34.199Z,2.87
2018-06-23T19:42:37.404Z,2.10
2018-06-23T19:47:40.687Z,3.63
2018-06-23T19:52:43.800Z,3.47
2018-06-23T19:57:47.044Z,3.43
2018-06-23T20:02:50.203Z,1.77
2018-06-23T20:07:53.322Z,2.20
2018-06-23T20:12:56.498Z,4.13
2018-06-23T20:17:59.771Z,1.93
2018-06-23T20:23:02.928Z,1.70
2018-06-23T20:28:06.211Z,2.20
2018-06-23T20:33:09.446Z,1.67
2018-06-23T20:38:12.612Z,1.67
2018-06-23T20:43:15.744Z,3.57
2018-06-23T20:48:18.850Z,1.70
2018-06-23T20:53:21.984Z,3.83
2018-06-23T20:58:25.128Z,2.17
2018-06-23T21:03:28.247Z,2.43
2018-06-23T21:08:31.394Z,2.93
2018-06-23T21:13:34.515Z,3.20
2018-06-23T21:18:37.622Z,2.20
2018-06-23T21:23:40.831Z,4.37
2018-06-23T21:28:44.033Z,3.00
2018-06-23T21:33:47.131Z,2.10
2018-06-23T21:38:50.270Z,3.50
2018-06-23T21:43:53.390Z,1.97
2018-06-23T21:48:56.483Z,3.40
2018-06-23T21:53:59.587Z,2.33
2018-06-23T21:59:02.715Z,1.93
2018-06-23T22:04:05.824Z,1.60
2018-06-23T22:09:09.733Z,4.63
2018-06-23T22:14:12.826Z,2.50
2018-06-23T22:19:15.984Z,1.73
2018-06-23T22:24:19.126Z,3.00
2018-06-23T22:29:22.252Z,2.20
2018-06-23T22:34:25.370Z,1.93
2018-06-23T22:39:28.466Z,1.83
2018-06-23T22:44:31.563Z,2.77
2018-06-23T22:49:34.704Z,2.27
2018-06-23T22:54:37.783Z,2.33
2018-06-23T22:59:40.884Z,2.40
2018-06-23T23:04:44.047Z,2.50
2018-06-23T23:09:47.151Z,2.20
2018-06-23T23:14:50.272Z,1.87
2018-06-23T23:19:53.380Z,3.27
2018-06-23T23:24:56.533Z,1.80
2018-06-23T23:29:59.683Z,1.97
2018-06-23T23:35:02.785Z,3.20
2018-06-23T23:40:06.052Z,1.73
2018-06-23T23:45:09.161Z,1.57
2018-06-23T23:50:12.291Z,3.27
2018-06-23T23:55:15.376Z,1.70
